Time;durP1;ratioP1;P1;durP2;ratioP2;P2;SDS_P1;SDS_P2;PMS_P1;PMS_P2;Temp;Humidity;BMP_temperature;BMP_pressure;BME280_temperature;BME280_humidity;BME280_pressure;Samples;Min_cycle;Max_cycle;Signal;HPM_P1;HPM_P2
2022/05/23 00:02:18;;;;;;;3.47;2.55;;;4.70;70.00;;;;;;5015897;28;20030;-80
2022/05/23 00:04:46;;;;;;;3.35;2.53;;;4.60;70.00;;;;;;5008591;28;20035;-85
2022/05/23 00:07:16;;;;;;;4.32;2.50;;;4.60;70.10;;;;;;4999978;28;20029;-82
2022/05/23 00:09:42;;;;;;;5.93;2.53;;;4.60;70.40;;;;;;4998564;28;20026;-83
2022/05/23 00:12:08;;;;;;;3.28;2.30;;;4.60;71.30;;;;;;5016422;28;20033;-82
2022/05/23 00:14:34;;;;;;;5.03;2.50;;;4.60;70.70;;;;;;5016493;28;20057;-81
2022/05/23 00:17:00;;;;;;;3.22;2.70;;;4.60;70.60;;;;;;5018132;28;20030;-81
2022/05/23 00:19:26;;;;;;;5.93;2.45;;;4.50;70.40;;;;;;5028507;28;20476;-83
2022/05/23 00:21:52;;;;;;;4.68;2.53;;;4.50;70.40;;;;;;5002445;28;20037;-81
2022/05/23 00:24:20;;;;;;;4.70;2.63;;;4.50;70.50;;;;;;5021640;28;20030;-81
2022/05/23 00:26:49;;;;;;;4.50;2.90;;;4.50;70.70;;;;;;5020372;28;20102;-82
2022/05/23 00:29:15;;;;;;;3.65;2.30;;;4.50;70.90;;;;;;5004151;28;20372;-81
2022/05/23 00:35:17;;;;;;;4.80;2.15;;;4.50;70.90;;;;;;5002344;28;20034;-81
2022/05/23 00:37:11;;;;;;;3.75;1.92;;;4.50;70.80;;;;;;4997761;28;20115;-83
2022/05/23 00:39:37;;;;;;;4.55;2.63;;;4.50;71.00;;;;;;5001397;28;20021;-82
2022/05/23 00:44:55;;;;;;;3.60;3.08;;;4.50;71.10;;;;;;5012741;28;20033;-82
2022/05/23 00:47:23;;;;;;;3.92;2.55;;;4.40;71.10;;;;;;5015494;28;20037;-81
2022/05/23 00:49:50;;;;;;;5.93;3.17;;;4.40;71.30;;;;;;5005768;28;20053;-79
2022/05/23 00:52:39;;;;;;;6.05;2.92;;;4.50;71.40;;;;;;4997423;28;20125;-80
2022/05/23 00:55:17;;;;;;;4.03;2.80;;;4.50;71.40;;;;;;4995513;28;20034;-80
2022/05/23 00:57:45;;;;;;;5.85;2.95;;;4.50;71.60;;;;;;4995500;28;20420;-81
2022/05/23 01:00:12;;;;;;;4.38;2.40;;;4.50;71.40;;;;;;4995731;28;20034;-80
2022/05/23 01:02:38;;;;;;;7.07;2.90;;;4.40;71.60;;;;;;4995499;28;20113;-81
2022/05/23 01:05:12;;;;;;;7.65;2.88;;;4.50;71.70;;;;;;4995522;28;20166;-80
2022/05/23 01:07:37;;;;;;;4.45;2.33;;;4.40;71.90;;;;;;4994957;28;20027;-81
2022/05/23 01:10:04;;;;;;;4.40;3.35;;;4.50;71.80;;;;;;5004303;28;20041;-80
2022/05/23 01:12:30;;;;;;;8.38;3.38;;;4.50;71.90;;;;;;5015570;28;20030;-80
2022/05/23 01:14:59;;;;;;;5.32;2.90;;;4.50;71.80;;;;;;5017153;28;20030;-79
2022/05/23 01:17:27;;;;;;;5.82;3.10;;;4.50;71.90;;;;;;5017008;28;20034;-81
2022/05/23 01:19:53;;;;;;;8.10;4.13;;;4.40;71.80;;;;;;5016141;28;20026;-81
2022/05/23 01:22:40;;;;;;;9.27;4.40;;;4.40;71.90;;;;;;5004679;28;20050;-79
2022/05/23 01:25:21;;;;;;;7.93;4.35;;;4.40;71.90;;;;;;4978223;28;20038;-79
2022/05/23 01:27:47;;;;;;;7.35;3.83;;;4.40;71.90;;;;;;4995815;28;20058;-79
2022/05/23 01:30:15;;;;;;;5.00;3.60;;;4.30;72.00;;;;;;5002418;28;20034;-79
2022/05/23 01:32:41;;;;;;;11.27;4.47;;;4.40;72.30;;;;;;4981423;28;20070;-79
2022/05/23 01:35:08;;;;;;;6.60;3.67;;;4.30;72.20;;;;;;4995566;28;20421;-79
2022/05/23 01:37:34;;;;;;;;;;;4.30;72.20;;;;;;4995535;28;20034;-79
2022/05/23 01:40:00;;;;;;;5.57;3.38;;;4.30;71.80;;;;;;5003166;28;19905;-80
2022/05/23 01:42:26;;;;;;;5.25;4.10;;;4.30;71.90;;;;;;4996971;28;20030;-78
2022/05/23 01:44:52;;;;;;;6.15;3.50;;;4.30;72.20;;;;;;4994808;28;20026;-79
2022/05/23 01:47:19;;;;;;;10.38;3.10;;;4.30;72.50;;;;;;5009635;28;20040;-81
2022/05/23 01:49:45;;;;;;;6.15;3.50;;;4.30;72.30;;;;;;5014885;28;20041;-80
2022/05/23 01:52:12;;;;;;;5.57;3.45;;;4.30;72.20;;;;;;5003586;28;20555;-79
2022/05/23 01:54:39;;;;;;;8.05;3.75;;;4.40;72.00;;;;;;5008485;28;20120;-79
2022/05/23 01:57:09;;;;;;;5.93;3.80;;;4.40;71.80;;;;;;5014303;28;20026;-81
2022/05/23 02:02:20;;;;;;;7.07;3.53;;;4.50;71.70;;;;;;5014414;28;20042;-79
2022/05/23 02:04:46;;;;;;;6.43;3.72;;;4.50;71.50;;;;;;5014164;28;20395;-79
2022/05/23 02:07:13;;;;;;;7.85;4.07;;;4.50;71.40;;;;;;4996566;28;20041;-80
2022/05/23 02:09:39;;;;;;;5.45;3.70;;;4.50;71.40;;;;;;5007202;28;20053;-80
2022/05/23 02:12:05;;;;;;;5.35;3.63;;;4.50;71.40;;;;;;4977134;28;20077;-80
2022/05/23 02:14:32;;;;;;;8.30;3.67;;;4.40;71.40;;;;;;4993324;28;20030;-78
2022/05/23 02:16:58;;;;;;;8.15;3.75;;;4.50;71.40;;;;;;4994220;28;20385;-77
2022/05/23 02:19:24;;;;;;;5.93;3.10;;;4.50;71.20;;;;;;4993392;28;20030;-81
2022/05/23 02:21:50;;;;;;;6.55;3.83;;;4.60;71.10;;;;;;4994276;28;20026;-79
2022/05/23 02:24:16;;;;;;;6.35;3.50;;;4.60;70.80;;;;;;4994315;28;20089;-80
2022/05/23 02:26:42;;;;;;;5.60;3.25;;;4.70;70.60;;;;;;4994041;28;20046;-79
2022/05/23 02:29:10;;;;;;;5.10;3.22;;;4.80;70.30;;;;;;4993827;28;20073;-80
2022/05/23 02:31:36;;;;;;;3.92;3.22;;;4.80;70.00;;;;;;4993944;28;20027;-79
2022/05/23 02:34:03;;;;;;;5.85;2.78;;;4.90;70.10;;;;;;4994592;28;20030;-79
2022/05/23 02:36:29;;;;;;;7.65;3.70;;;5.00;70.10;;;;;;4997591;28;20388;-79
2022/05/23 02:38:55;;;;;;;6.28;3.95;;;5.10;70.00;;;;;;4993957;28;20026;-78
2022/05/23 02:41:22;;;;;;;5.45;3.50;;;5.10;69.80;;;;;;4994711;28;20059;-79
2022/05/23 02:43:48;;;;;;;5.97;4.13;;;5.20;69.60;;;;;;5004571;28;20085;-81
2022/05/23 02:46:14;;;;;;;6.75;3.60;;;5.30;69.20;;;;;;4993782;28;20037;-80
2022/05/23 02:48:40;;;;;;;5.97;3.80;;;5.50;68.90;;;;;;4993797;28;20033;-80
2022/05/23 02:51:07;;;;;;;6.30;3.42;;;5.70;68.50;;;;;;4994002;28;20027;-81
2022/05/23 02:53:32;;;;;;;7.68;3.35;;;5.80;67.70;;;;;;5003345;28;20045;-80
2022/05/23 02:55:58;;;;;;;5.13;3.40;;;5.90;67.10;;;;;;4995299;28;20439;-79
2022/05/23 02:58:24;;;;;;;7.43;3.80;;;6.00;66.80;;;;;;4998430;28;20443;-79
2022/05/23 03:00:50;;;;;;;6.03;3.42;;;6.10;66.50;;;;;;4993311;28;20027;-78
2022/05/23 03:03:17;;;;;;;6.00;3.05;;;6.10;65.90;;;;;;4993240;28;20105;-77
2022/05/23 03:05:47;;;;;;;8.05;3.90;;;6.10;65.90;;;;;;4975847;28;20047;-79
2022/05/23 03:08:16;;;;;;;5.88;3.30;;;6.10;65.40;;;;;;4994558;28;20026;-79
2022/05/23 03:10:42;;;;;;;5.53;3.95;;;6.10;65.40;;;;;;4994051;28;20035;-79
2022/05/23 03:13:09;;;;;;;6.53;3.35;;;6.20;65.60;;;;;;4994698;28;20031;-80
2022/05/23 03:15:35;;;;;;;5.47;3.60;;;6.20;65.30;;;;;;4976281;28;20121;-78
2022/05/23 03:18:02;;;;;;;7.68;4.03;;;6.30;64.80;;;;;;4994075;28;20031;-79
2022/05/23 03:20:28;;;;;;;8.32;3.78;;;6.30;64.30;;;;;;4999077;28;20033;-78
2022/05/23 03:28:23;;;;;;;4.72;2.85;;;6.50;63.80;;;;;;4993280;28;20411;-80
2022/05/23 03:30:49;;;;;;;4.95;3.33;;;6.50;63.10;;;;;;4992941;28;20027;-81
2022/05/23 03:33:16;;;;;;;5.32;3.00;;;6.60;63.60;;;;;;4992831;28;20527;-80
2022/05/23 03:35:42;;;;;;;7.00;3.38;;;6.70;63.40;;;;;;4992865;28;20026;-80
2022/05/23 03:38:08;;;;;;;6.97;3.42;;;6.80;62.90;;;;;;4978727;28;20022;-80
2022/05/23 03:40:36;;;;;;;4.53;3.60;;;6.90;62.30;;;;;;5012984;28;20022;-79
2022/05/23 03:43:03;;;;;;;5.72;3.67;;;6.90;62.00;;;;;;5012993;28;20105;-80
2022/05/23 03:45:30;;;;;;;7.70;3.45;;;6.90;62.10;;;;;;5012041;28;20034;-80
2022/05/23 03:47:57;;;;;;;5.95;3.40;;;6.90;62.10;;;;;;5012185;28;20391;-80
2022/05/23 03:50:26;;;;;;;5.57;3.50;;;7.00;62.10;;;;;;5012644;28;20025;-79
2022/05/23 03:52:52;;;;;;;6.18;3.45;;;7.00;61.90;;;;;;5011650;28;20435;-80
2022/05/23 03:55:24;;;;;;;10.20;4.20;;;7.00;62.20;;;;;;4997811;28;20092;-80
2022/05/23 03:57:53;;;;;;;7.20;4.10;;;7.00;61.50;;;;;;4994451;28;20029;-80
2022/05/23 04:00:23;;;;;;;6.00;4.15;;;7.10;61.60;;;;;;4993963;28;20026;-81
2022/05/23 04:02:58;;;;;;;3.58;2.88;;;7.10;61.30;;;;;;4977457;28;20019;-80
2022/05/23 04:05:25;;;;;;;4.50;3.33;;;7.10;60.60;;;;;;4975500;28;20042;-81
2022/05/23 04:07:51;;;;;;;5.57;3.97;;;7.10;60.70;;;;;;4992897;28;20029;-81
2022/05/23 04:10:17;;;;;;;8.25;3.72;;;7.10;60.90;;;;;;4993139;28;20112;-81
2022/05/23 04:12:43;;;;;;;6.32;3.58;;;7.10;61.10;;;;;;4993664;28;20022;-81
2022/05/23 04:15:10;;;;;;;9.00;4.30;;;7.20;60.90;;;;;;4992682;28;20033;-81
2022/05/23 04:17:36;;;;;;;8.85;3.60;;;7.20;61.00;;;;;;4992776;28;20074;-80
2022/05/23 04:20:03;;;;;;;9.45;4.88;;;7.30;60.80;;;;;;4993027;28;20023;-79
2022/05/23 04:22:29;;;;;;;6.80;4.35;;;7.30;60.60;;;;;;4975488;28;20480;-80
2022/05/23 04:24:55;;;;;;;7.22;4.18;;;7.40;60.80;;;;;;4992534;28;20046;-79
2022/05/23 04:27:21;;;;;;;9.82;5.00;;;7.50;60.60;;;;;;4992689;28;20102;-80
2022/05/23 04:29:46;;;;;;;6.93;4.40;;;7.60;60.10;;;;;;4992608;28;20082;-80
2022/05/23 04:35:14;;;;;;;8.60;4.63;;;7.60;60.90;;;;;;4993167;28;20041;-80
2022/05/23 04:37:46;;;;;;;9.45;5.00;;;7.70;60.50;;;;;;4992528;28;20114;-79
2022/05/23 04:40:17;;;;;;;7.22;5.00;;;7.90;60.00;;;;;;5007402;28;20026;-81
2022/05/23 04:42:43;;;;;;;9.90;4.80;;;8.00;59.20;;;;;;5023062;28;20564;-80
2022/05/23 04:45:11;;;;;;;6.70;4.70;;;8.00;59.20;;;;;;5001512;28;20038;-81
2022/05/23 04:50:21;;;;;;;8.57;4.30;;;8.00;58.70;;;;;;5001268;28;20341;-80
2022/05/23 04:52:47;;;;;;;8.27;5.43;;;8.10;58.60;;;;;;4997361;28;20031;-79
2022/05/23 04:55:15;;;;;;;9.75;4.90;;;8.30;58.20;;;;;;4984343;28;20170;-80
2022/05/23 04:57:41;;;;;;;8.43;5.13;;;8.40;58.10;;;;;;4996698;28;20020;-81
2022/05/23 05:00:13;;;;;;;6.90;5.13;;;8.70;57.60;;;;;;4996656;28;20173;-81
2022/05/23 05:02:39;;;;;;;10.82;5.68;;;8.90;57.30;;;;;;4996379;28;20025;-78
2022/05/23 05:05:06;;;;;;;9.23;5.00;;;9.10;56.90;;;;;;5002900;28;20038;-78
2022/05/23 05:07:32;;;;;;;8.10;4.95;;;9.30;56.20;;;;;;5009598;28;20041;-80
2022/05/23 05:09:57;;;;;;;7.97;5.15;;;10.10;55.90;;;;;;4996663;28;20436;-80
2022/05/23 05:12:23;;;;;;;9.45;5.53;;;11.20;53.00;;;;;;4995912;28;20110;-81
2022/05/23 05:14:49;;;;;;;8.65;5.28;;;12.00;50.60;;;;;;4980896;28;20030;-79
2022/05/23 05:17:15;;;;;;;8.60;5.65;;;12.50;49.40;;;;;;4986702;28;20022;-80
2022/05/23 05:19:41;;;;;;;9.05;4.95;;;13.20;48.00;;;;;;4996256;28;20030;-81
2022/05/23 05:22:06;;;;;;;7.22;4.13;;;13.60;46.60;;;;;;4995565;28;20383;-81
2022/05/23 05:24:32;;;;;;;6.40;4.95;;;14.00;45.00;;;;;;4977982;28;20026;-80
2022/05/23 05:27:00;;;;;;;9.15;5.13;;;14.10;44.40;;;;;;4996277;28;20484;-80
2022/05/23 05:29:27;;;;;;;9.23;4.57;;;14.60;44.10;;;;;;4995630;28;20373;-80
2022/05/23 05:32:08;;;;;;;8.95;4.22;;;15.60;42.90;;;;;;4995302;28;20503;-80
2022/05/23 05:34:52;;;;;;;4.75;3.95;;;16.50;41.80;;;;;;4995052;28;20037;-81
2022/05/23 05:37:29;;;;;;;5.03;3.33;;;17.00;38.70;;;;;;4994978;28;20076;-81
2022/05/23 05:39:57;;;;;;;8.50;4.50;;;17.50;38.20;;;;;;4994893;28;20026;-81
2022/05/23 05:42:27;;;;;;;8.35;4.25;;;17.90;37.30;;;;;;4994877;28;20076;-81
2022/05/23 05:45:02;;;;;;;4.57;3.65;;;18.20;36.40;;;;;;4994936;28;20030;-81
2022/05/23 05:47:32;;;;;;;9.57;3.90;;;18.20;35.20;;;;;;4994578;28;20034;-82
2022/05/23 05:50:04;;;;;;;4.50;3.50;;;17.80;35.60;;;;;;4977836;28;20031;-80
2022/05/23 05:52:32;;;;;;;6.15;3.67;;;17.30;36.70;;;;;;4995769;28;20046;-80
2022/05/23 05:54:58;;;;;;;6.90;3.00;;;17.60;36.40;;;;;;4976625;28;20403;-81
2022/05/23 05:57:25;;;;;;;3.55;3.05;;;18.00;35.50;;;;;;4994910;28;20026;-82
2022/05/23 05:59:51;;;;;;;6.22;3.25;;;17.50;35.30;;;;;;4996019;28;20041;-81
2022/05/23 06:02:18;;;;;;;4.13;2.70;;;18.00;35.40;;;;;;4998660;28;20030;-80
2022/05/23 06:04:43;;;;;;;6.88;3.33;;;18.50;34.90;;;;;;4997425;28;20040;-81
2022/05/23 06:12:54;;;;;;;9.98;2.90;;;21.60;31.20;;;;;;4997321;28;20393;-84
2022/05/23 06:15:20;;;;;;;4.65;2.60;;;22.90;30.70;;;;;;4977788;28;20395;-84
2022/05/23 06:17:46;;;;;;;3.65;3.10;;;23.10;29.80;;;;;;4979404;28;20086;-82
2022/05/23 06:20:14;;;;;;;5.15;3.25;;;23.10;29.40;;;;;;5006788;28;20030;-80
2022/05/23 06:22:40;;;;;;;5.68;2.25;;;23.00;29.60;;;;;;4994392;28;20058;-83
2022/05/23 06:25:07;;;;;;;6.63;2.92;;;22.30;29.50;;;;;;4994583;28;20068;-84
2022/05/23 06:27:33;;;;;;;4.03;2.92;;;20.70;30.40;;;;;;4995133;28;20026;-83
2022/05/23 06:29:59;;;;;;;7.05;3.13;;;19.50;32.10;;;;;;4994234;28;20037;-83
2022/05/23 06:32:25;;;;;;;6.72;3.13;;;18.90;32.60;;;;;;4994605;28;20053;-83
2022/05/23 06:34:50;;;;;;;6.22;2.85;;;18.40;33.60;;;;;;4994638;28;20056;-84
2022/05/23 06:37:16;;;;;;;5.10;2.60;;;19.00;33.40;;;;;;4996561;28;20388;-83
2022/05/23 06:39:42;;;;;;;6.93;3.05;;;20.20;32.20;;;;;;4979506;28;20077;-84
2022/05/23 06:42:08;;;;;;;9.20;3.20;;;21.40;30.90;;;;;;4994772;28;20105;-80
2022/05/23 06:44:34;;;;;;;6.60;3.22;;;21.90;30.10;;;;;;4977332;28;20038;-83
2022/05/23 06:47:00;;;;;;;2.83;2.22;;;22.30;29.60;;;;;;4998450;28;20029;-82
2022/05/23 06:49:26;;;;;;;4.22;2.70;;;21.60;29.30;;;;;;5003808;28;20022;-82
2022/05/23 06:51:52;;;;;;;6.03;2.58;;;21.30;30.00;;;;;;4999739;28;20467;-82
2022/05/23 06:54:20;;;;;;;4.60;2.60;;;21.40;29.70;;;;;;4997931;28;20424;-82
2022/05/23 06:56:48;;;;;;;4.28;2.60;;;22.20;29.60;;;;;;4999665;28;20025;-82
2022/05/23 06:59:17;;;;;;;6.45;3.25;;;23.20;28.90;;;;;;4994068;28;20379;-85
2022/05/23 07:01:44;;;;;;;6.18;2.58;;;23.70;28.00;;;;;;4993608;28;20148;-81
2022/05/23 07:04:10;;;;;;;3.65;2.33;;;22.90;27.90;;;;;;4998571;28;20030;-81
2022/05/23 07:12:20;;;;;;;4.07;2.35;;;19.20;30.50;;;;;;4995983;28;20061;-81
2022/05/23 07:14:47;;;;;;;3.70;2.45;;;18.70;31.40;;;;;;4993506;28;20031;-81
2022/05/23 07:17:14;;;;;;;5.70;3.10;;;18.80;31.30;;;;;;4992706;28;20472;-78
2022/05/23 07:19:39;;;;;;;9.38;3.08;;;18.80;31.60;;;;;;4993549;28;20093;-79
2022/05/23 07:22:06;;;;;;;3.42;2.63;;;19.20;31.20;;;;;;4993343;28;20018;-79
2022/05/23 07:24:32;;;;;;;4.10;2.50;;;20.70;30.00;;;;;;4993059;28;20026;-80
2022/05/23 07:27:00;;;;;;;3.67;2.40;;;21.60;29.10;;;;;;4975564;28;20111;-81
2022/05/23 07:29:26;;;;;;;3.58;2.50;;;22.80;28.40;;;;;;4993273;28;20015;-78
2022/05/23 07:31:53;;;;;;;4.65;2.65;;;23.70;27.80;;;;;;4978251;28;20054;-79
2022/05/23 07:34:19;;;;;;;6.22;2.75;;;23.90;27.20;;;;;;4986939;28;20381;-79
2022/05/23 07:36:46;;;;;;;6.75;2.47;;;23.90;27.20;;;;;;5012181;28;20117;-80
2022/05/23 07:39:13;;;;;;;5.85;2.75;;;24.60;26.90;;;;;;5012137;28;20034;-79
2022/05/23 07:41:40;;;;;;;6.68;2.58;;;25.40;26.80;;;;;;5012181;28;20100;-78
2022/05/23 07:44:08;;;;;;;8.30;2.90;;;26.30;26.20;;;;;;5012081;28;20018;-79
2022/05/23 07:46:34;;;;;;;4.97;2.63;;;26.70;26.20;;;;;;5012592;28;20053;-79
2022/05/23 07:49:00;;;;;;;8.10;2.45;;;27.50;25.30;;;;;;5012297;28;20049;-80
2022/05/23 07:51:30;;;;;;;5.70;3.03;;;26.90;25.50;;;;;;5012165;28;20033;-79
2022/05/23 08:02:11;;;;;;;4.47;2.33;;;27.20;25.10;;;;;;5012739;28;20556;-81
2022/05/23 08:04:38;;;;;;;4.07;2.00;;;26.50;25.30;;;;;;5012153;28;20396;-81
2022/05/23 08:07:06;;;;;;;4.28;2.53;;;26.40;25.60;;;;;;5012334;28;20036;-79
2022/05/23 08:09:31;;;;;;;3.08;2.30;;;27.10;25.20;;;;;;5012164;28;20383;-79
2022/05/23 08:11:58;;;;;;;3.35;2.58;;;27.30;25.00;;;;;;5012688;28;20026;-81
2022/05/23 08:14:24;;;;;;;4.78;2.05;;;27.00;25.00;;;;;;4994669;28;20038;-79
2022/05/23 08:16:51;;;;;;;3.73;2.40;;;27.40;25.30;;;;;;5012750;28;20033;-81
2022/05/23 08:19:17;;;;;;;;;;;27.70;24.80;;;;;;5016918;28;20025;-79
2022/05/23 08:21:49;;;;;;;6.90;2.70;;;27.50;25.70;;;;;;5016071;28;20416;-81
2022/05/23 08:24:15;;;;;;;9.48;3.00;;;27.90;24.90;;;;;;4998166;28;20057;-80
2022/05/23 08:26:41;;;;;;;4.55;2.70;;;27.20;25.00;;;;;;4998655;28;20034;-80
2022/05/23 08:29:06;;;;;;;7.70;2.45;;;27.40;25.30;;;;;;5017915;28;20072;-80
2022/05/23 08:31:32;;;;;;;4.22;2.50;;;28.00;25.20;;;;;;5000547;28;20790;-81
2022/05/23 08:33:58;;;;;;;4.90;2.35;;;29.00;25.00;;;;;;5000111;28;20033;-81
2022/05/23 08:36:24;;;;;;;9.45;3.03;;;28.60;24.40;;;;;;4998824;28;20080;-82
2022/05/23 08:38:49;;;;;;;3.45;2.15;;;28.10;25.00;;;;;;4998697;28;20127;-80
2022/05/23 08:41:15;;;;;;;4.28;2.40;;;28.60;24.40;;;;;;5017202;28;20030;-80
2022/05/23 08:44:17;;;;;;;3.40;2.38;;;27.90;24.60;;;;;;5022992;28;20432;-79
2022/05/23 08:47:08;;;;;;;7.95;2.65;;;28.00;24.70;;;;;;5015836;28;20125;-81
2022/05/23 08:49:52;;;;;;;6.28;2.20;;;27.60;25.20;;;;;;5015528;28;20022;-80
2022/05/23 08:52:38;;;;;;;4.00;1.98;;;27.10;24.90;;;;;;5015927;28;20026;-79
2022/05/23 08:55:14;;;;;;;4.97;2.40;;;27.10;25.20;;;;;;5017354;28;20028;-79
2022/05/23 08:58:02;;;;;;;3.50;2.20;;;27.40;25.60;;;;;;5018952;28;20025;-81
2022/05/23 09:00:38;;;;;;;5.82;2.83;;;27.90;24.80;;;;;;5017096;28;20033;-81
2022/05/23 09:03:15;;;;;;;5.88;3.33;;;27.80;24.60;;;;;;5016920;28;20087;-81
2022/05/23 09:05:49;;;;;;;4.30;2.58;;;27.90;24.70;;;;;;5018402;28;20038;-80
2022/05/23 09:08:19;;;;;;;2.88;1.80;;;28.00;24.50;;;;;;5016869;28;20072;-80
2022/05/23 09:11:04;;;;;;;3.78;2.08;;;28.00;24.50;;;;;;5015010;28;20472;-80
2022/05/23 09:13:36;;;;;;;8.00;2.65;;;28.30;24.50;;;;;;5015576;28;20029;-83
2022/05/23 09:16:06;;;;;;;3.97;2.92;;;28.00;24.80;;;;;;5015499;28;20093;-82
2022/05/23 09:18:42;;;;;;;6.75;4.50;;;28.50;24.60;;;;;;4997875;28;20535;-81
2022/05/23 09:21:09;;;;;;;8.63;2.42;;;29.00;24.40;;;;;;5014902;28;20025;-79
2022/05/23 09:23:47;;;;;;;2.53;2.00;;;28.90;24.30;;;;;;5015002;28;20104;-80
2022/05/23 09:26:27;;;;;;;4.30;2.20;;;28.30;24.00;;;;;;5014406;28;20822;-81
2022/05/23 09:28:53;;;;;;;4.18;2.10;;;26.60;24.90;;;;;;5014655;28;20034;-80
2022/05/23 09:31:37;;;;;;;3.65;1.80;;;26.00;25.50;;;;;;5010859;28;20033;-80
2022/05/23 09:34:04;;;;;;;9.05;2.53;;;25.90;25.60;;;;;;4994772;28;20042;-78
2022/05/23 09:36:36;;;;;;;7.28;3.72;;;26.50;25.70;;;;;;4994845;28;20019;-81
2022/05/23 09:39:06;;;;;;;5.97;2.88;;;27.50;25.60;;;;;;4995025;28;20030;-80
2022/05/23 09:50:07;;;;;;;3.83;1.63;;;30.30;23.80;;;;;;5014567;28;20171;-80
2022/05/23 09:52:42;;;;;;;6.22;1.88;;;30.30;23.90;;;;;;5014531;28;20026;-80
2022/05/23 09:55:09;;;;;;;2.78;2.03;;;29.30;23.60;;;;;;5017318;28;20109;-80
2022/05/23 09:57:50;;;;;;;3.72;1.98;;;28.20;24.20;;;;;;5016362;28;20029;-81
2022/05/23 10:00:17;;;;;;;5.75;2.00;;;28.40;24.80;;;;;;5014319;28;20089;-80
2022/05/23 10:03:05;;;;;;;3.58;1.90;;;29.00;24.20;;;;;;5014166;28;20026;-80
2022/05/23 10:05:46;;;;;;;10.13;2.92;;;29.20;24.40;;;;;;4996469;28;20500;-81
2022/05/23 10:08:14;;;;;;;7.57;3.25;;;29.60;24.80;;;;;;5013558;28;20352;-80
2022/05/23 10:10:53;;;;;;;3.97;1.92;;;29.90;23.90;;;;;;5013937;28;20029;-79
2022/05/23 10:13:35;;;;;;;3.85;2.97;;;30.50;23.90;;;;;;5014239;28;20391;-80
2022/05/23 10:16:15;;;;;;;3.72;1.88;;;30.80;23.70;;;;;;5014073;28;20026;-78
2022/05/23 10:19:11;;;;;;;3.75;2.15;;;30.20;23.60;;;;;;5013902;28;20030;-80
2022/05/23 10:21:45;;;;;;;11.00;2.35;;;29.00;23.80;;;;;;5009292;28;20033;-81
2022/05/23 10:24:40;;;;;;;6.93;2.00;;;28.10;23.90;;;;;;5013512;28;20057;-80
2022/05/23 10:27:17;;;;;;;2.65;2.10;;;26.40;24.20;;;;;;5013389;28;20033;-80
2022/05/23 10:29:54;;;;;;;2.83;2.03;;;23.60;25.80;;;;;;4995211;28;20034;-80
2022/05/23 10:32:48;;;;;;;6.10;2.40;;;21.40;27.60;;;;;;4993670;28;20046;-80
2022/05/23 10:35:44;;;;;;;4.18;2.38;;;19.60;29.00;;;;;;4993570;28;20369;-80
2022/05/23 10:44:01;;;;;;;4.55;2.63;;;17.00;32.50;;;;;;5013667;28;20104;-80
2022/05/23 10:46:28;;;;;;;4.15;2.10;;;16.50;33.60;;;;;;5013059;28;20041;-82
2022/05/23 10:49:06;;;;;;;4.63;2.35;;;16.10;34.30;;;;;;5013713;28;20025;-81
2022/05/23 10:51:44;;;;;;;6.78;2.30;;;15.60;35.00;;;;;;5013582;28;20025;-82
2022/05/23 10:54:56;;;;;;;6.03;2.15;;;15.40;35.50;;;;;;5013808;28;20026;-82
2022/05/23 10:57:59;;;;;;;5.13;2.13;;;15.30;35.80;;;;;;5005193;28;20038;-79
2022/05/23 11:00:36;;;;;;;2.78;2.53;;;15.10;36.60;;;;;;5016316;28;20081;-79
2022/05/23 11:03:12;;;;;;;4.68;2.30;;;14.90;36.70;;;;;;5015148;28;20085;-79
2022/05/23 11:06:12;;;;;;;3.70;2.03;;;14.80;36.70;;;;;;5002240;28;20125;-81
2022/05/23 11:09:11;;;;;;;3.33;2.25;;;14.70;37.30;;;;;;4998678;28;20034;-81
2022/05/23 11:11:57;;;;;;;3.60;2.45;;;14.50;37.70;;;;;;5013470;28;20406;-80
2022/05/23 11:14:44;;;;;;;4.38;2.60;;;14.60;38.30;;;;;;4995895;28;20114;-80
2022/05/23 11:17:19;;;;;;;3.90;1.70;;;14.80;37.70;;;;;;4996767;28;20053;-79
2022/05/23 11:20:04;;;;;;;3.95;2.00;;;15.00;36.90;;;;;;5014405;28;20272;-80
2022/05/23 11:22:37;;;;;;;2.90;2.03;;;14.90;37.00;;;;;;5014051;28;20022;-79
2022/05/23 11:25:25;;;;;;;3.85;2.22;;;14.80;37.00;;;;;;5013507;28;20029;-80
2022/05/23 11:33:58;;;;;;;5.57;2.40;;;14.50;37.50;;;;;;4993032;28;20126;-83
2022/05/23 11:36:56;;;;;;;4.13;1.92;;;14.50;38.00;;;;;;4975596;28;20033;-82
2022/05/23 11:39:43;;;;;;;8.18;2.05;;;14.50;38.30;;;;;;4995884;28;20531;-82
2022/05/23 11:42:12;;;;;;;2.72;1.80;;;14.70;38.60;;;;;;4994622;28;20451;-79
2022/05/23 11:44:47;;;;;;;5.88;2.40;;;14.80;38.00;;;;;;5012312;28;20030;-80
2022/05/23 11:47:25;;;;;;;6.15;2.30;;;15.00;37.40;;;;;;5012764;28;20065;-80
2022/05/23 11:50:26;;;;;;;3.72;2.10;;;14.90;37.60;;;;;;5012384;28;20080;-79
2022/05/23 11:53:10;;;;;;;7.72;1.98;;;14.90;37.00;;;;;;4998651;28;20033;-78
2022/05/23 11:55:51;;;;;;;3.17;1.90;;;14.80;37.20;;;;;;5016308;28;20019;-83
2022/05/23 11:58:36;;;;;;;8.00;2.00;;;14.70;36.60;;;;;;5016393;28;20026;-79
2022/05/23 12:01:10;;;;;;;7.97;2.60;;;14.70;36.70;;;;;;5016506;28;20037;-80
2022/05/23 12:03:50;;;;;;;5.32;2.28;;;14.70;36.80;;;;;;5016496;28;20030;-81
2022/05/23 12:06:25;;;;;;;4.93;2.00;;;14.70;37.00;;;;;;5016043;28;20084;-80
2022/05/23 12:09:12;;;;;;;5.85;1.90;;;14.70;36.90;;;;;;5016301;28;20105;-78
2022/05/23 12:11:51;;;;;;;4.18;1.92;;;14.60;37.00;;;;;;5016477;28;20108;-79
2022/05/23 12:14:19;;;;;;;5.35;2.63;;;14.50;37.20;;;;;;5016837;28;20034;-81
2022/05/23 12:17:06;;;;;;;8.63;2.00;;;14.60;37.80;;;;;;5016679;28;20032;-81
2022/05/23 12:19:33;;;;;;;4.55;2.15;;;14.60;38.00;;;;;;5024740;28;20022;-80
2022/05/23 12:22:18;;;;;;;;;;;14.70;37.70;;;;;;5020462;28;20049;-80
2022/05/23 12:25:07;;;;;;;7.90;2.10;;;14.80;37.50;;;;;;5015877;28;19909;-81
2022/05/23 12:27:34;;;;;;;4.22;1.88;;;14.90;37.60;;;;;;5015555;28;20053;-81
2022/05/23 12:30:21;;;;;;;5.10;2.88;;;14.90;37.00;;;;;;4996324;28;20054;-80
2022/05/23 12:32:58;;;;;;;4.88;2.25;;;14.90;36.50;;;;;;4995720;28;20046;-80
2022/05/23 12:35:42;;;;;;;4.78;2.53;;;14.80;36.50;;;;;;4996129;28;20113;-81
2022/05/23 12:38:46;;;;;;;6.80;2.00;;;14.70;35.80;;;;;;4996342;28;20018;-79
2022/05/23 12:41:50;;;;;;;4.68;2.40;;;14.60;35.80;;;;;;4996079;28;20050;-78
2022/05/23 12:44:38;;;;;;;3.17;2.00;;;14.50;35.80;;;;;;4985657;28;20034;-78
2022/05/23 12:47:27;;;;;;;8.35;2.30;;;14.60;35.70;;;;;;4996200;28;20045;-79
2022/05/23 12:50:43;;;;;;;5.00;2.35;;;14.60;35.60;;;;;;4996007;28;20022;-79
2022/05/23 12:53:39;;;;;;;4.38;2.55;;;14.60;35.50;;;;;;4971013;28;20038;-79
2022/05/23 12:56:36;;;;;;;5.97;2.70;;;14.70;35.50;;;;;;4996221;28;20041;-80
2022/05/23 12:59:26;;;;;;;3.90;2.42;;;14.80;35.50;;;;;;4998065;28;20031;-80
2022/05/23 13:01:59;;;;;;;5.15;1.70;;;14.90;35.00;;;;;;4996044;28;20022;-81
2022/05/23 13:04:51;;;;;;;7.50;2.40;;;14.90;33.70;;;;;;4978417;28;20053;-81
2022/05/23 13:07:25;;;;;;;5.28;2.00;;;14.90;34.10;;;;;;4971008;28;20049;-81
2022/05/23 13:10:02;;;;;;;6.53;2.20;;;14.80;34.20;;;;;;4979186;28;20029;-82
2022/05/23 13:12:37;;;;;;;4.68;2.55;;;14.80;34.20;;;;;;4981064;28;20042;-80
2022/05/23 13:15:03;;;;;;;6.05;2.30;;;14.80;34.80;;;;;;4985142;28;20034;-82
2022/05/23 13:17:42;;;;;;;6.65;2.13;;;14.80;34.80;;;;;;5000907;28;20022;-79
2022/05/23 13:23:18;;;;;;;3.38;2.13;;;15.00;34.00;;;;;;4997486;28;20570;-83
2022/05/23 13:25:45;;;;;;;5.78;2.28;;;14.90;34.00;;;;;;4996273;28;20042;-82
2022/05/23 13:28:15;;;;;;;7.85;2.25;;;14.90;34.00;;;;;;4996516;28;20026;-80
2022/05/23 13:30:44;;;;;;;5.90;2.45;;;15.00;34.10;;;;;;5001590;28;20069;-82
2022/05/23 13:33:15;;;;;;;4.75;2.20;;;15.00;33.70;;;;;;4996484;28;20500;-80
2022/05/23 13:35:42;;;;;;;14.10;2.75;;;15.30;32.40;;;;;;4996033;28;20026;-81
2022/05/23 13:38:12;;;;;;;;;;;16.50;31.70;;;;;;4996294;28;20026;-80
2022/05/23 13:40:43;;;;;;;5.28;2.17;;;17.60;30.70;;;;;;4987627;28;19956;-80
2022/05/23 13:43:30;;;;;;;6.35;2.35;;;18.60;29.70;;;;;;4995367;28;20431;-82
2022/05/23 13:46:20;;;;;;;10.98;2.83;;;19.50;29.30;;;;;;4994837;28;20054;-79
2022/05/23 13:48:55;;;;;;;5.57;2.10;;;19.80;28.10;;;;;;4995315;28;20459;-80
2022/05/23 13:51:26;;;;;;;6.53;2.20;;;20.00;27.80;;;;;;4995031;28;20018;-79
2022/05/23 13:54:00;;;;;;;5.55;2.58;;;20.30;27.60;;;;;;4995255;28;20415;-81
2022/05/23 13:56:27;;;;;;;5.63;2.53;;;20.90;27.60;;;;;;4995120;28;20487;-81
2022/05/23 13:59:01;;;;;;;4.47;2.40;;;21.20;26.50;;;;;;4996722;28;20117;-81
2022/05/23 14:01:40;;;;;;;5.90;1.80;;;21.10;26.40;;;;;;4999104;28;20025;-80
2022/05/23 14:04:10;;;;;;;5.15;2.38;;;21.10;26.00;;;;;;4996885;28;20022;-79
2022/05/23 14:06:44;;;;;;;2.20;1.83;;;20.90;26.20;;;;;;4995266;28;20031;-81
2022/05/23 14:09:12;;;;;;;4.53;2.17;;;20.90;26.40;;;;;;4994669;28;20052;-81
2022/05/23 14:11:45;;;;;;;6.30;1.90;;;20.80;26.20;;;;;;4994387;28;20019;-81
2022/05/23 14:14:34;;;;;;;4.10;1.92;;;20.80;26.30;;;;;;4975971;28;20052;-80
2022/05/23 14:17:08;;;;;;;7.32;2.75;;;20.70;27.00;;;;;;4977069;28;20022;-79
2022/05/23 14:19:56;;;;;;;5.82;2.28;;;20.60;26.20;;;;;;4994467;28;20186;-79